createdAt,value
2022-12-08T00:01:37.177Z,65.60
2022-12-08T00:04:07.989Z,69.45
2022-12-08T00:07:03.161Z,64.47
2022-12-08T00:09:38.629Z,66.13
2022-12-08T00:12:21.144Z,66.38
2022-12-08T00:14:50.156Z,64.10
2022-12-08T00:17:21.577Z,64.80
2022-12-08T00:19:54.629Z,66.88
2022-12-08T00:22:30.463Z,60.53
2022-12-08T00:24:57.451Z,61.55
2022-12-08T00:27:25.837Z,62.30
2022-12-08T00:29:55.967Z,68.65
2022-12-08T00:32:28.281Z,66.60
2022-12-08T00:34:59.608Z,67.45
2022-12-08T00:37:38.506Z,71.68
2022-12-08T00:40:09.061Z,66.45
2022-12-08T00:42:44.286Z,72.70
2022-12-08T00:45:24.072Z,72.13
2022-12-08T00:47:55.477Z,68.30
2022-12-08T00:50:25.431Z,63.45
2022-12-08T00:52:56.497Z,65.22
2022-12-08T00:55:43.717Z,66.22
2022-12-08T00:58:25.349Z,69.70
2022-12-08T01:00:56.167Z,66.80
2022-12-08T01:03:29.124Z,68.07
2022-12-08T01:06:06.249Z,66.35
2022-12-08T01:08:37.653Z,70.05
2022-12-08T01:11:16.638Z,64.97
2022-12-08T01:13:44.818Z,73.97
2022-12-08T01:16:34.537Z,67.63
2022-12-08T01:19:05.609Z,66.97
2022-12-08T01:21:34.282Z,62.35
2022-12-08T01:24:02.880Z,63.58
2022-12-08T01:26:47.337Z,65.40
2022-12-08T01:29:30.357Z,64.45
2022-12-08T01:32:08.172Z,62.75
2022-12-08T01:35:12.289Z,59.42
2022-12-08T01:37:46.191Z,60.13
2022-12-08T01:40:16.549Z,58.33
2022-12-08T01:42:43.717Z,62.85
2022-12-08T01:45:40.659Z,59.90
2022-12-08T01:48:15.405Z,59.97
2022-12-08T01:51:01.773Z,61.42
2022-12-08T01:57:24.211Z,58.28
2022-12-08T02:00:06.945Z,58.10
2022-12-08T02:05:58.902Z,60.10
2022-12-08T02:08:27.666Z,62.47
2022-12-08T02:14:32.526Z,59.92
2022-12-08T02:17:37.029Z,61.13
2022-12-08T02:20:18.244Z,59.80
2022-12-08T02:23:25.323Z,61.05
2022-12-08T02:26:15.793Z,58.45
2022-12-08T02:29:17.322Z,61.28
2022-12-08T02:31:56.522Z,58.15
2022-12-08T02:34:51.975Z,58.42
2022-12-08T02:37:25.366Z,59.25
2022-12-08T02:40:17.084Z,55.22
2022-12-08T02:43:02.729Z,58.97
2022-12-08T02:45:41.490Z,58.38
2022-12-08T02:48:09.547Z,58.75
2022-12-08T02:50:36.792Z,60.58
2022-12-08T02:55:38.316Z,62.05
2022-12-08T02:58:28.481Z,61.55
2022-12-08T03:01:28.779Z,58.72
2022-12-08T03:04:20.535Z,61.92
2022-12-08T03:06:54.182Z,63.05
2022-12-08T03:13:36.172Z,63.13
2022-12-08T03:16:09.504Z,65.20
2022-12-08T03:18:40.447Z,69.95
2022-12-08T03:21:08.805Z,63.00
2022-12-08T03:23:38.996Z,64.57
2022-12-08T03:26:13.708Z,59.83
2022-12-08T03:28:41.989Z,61.00
2022-12-08T03:31:13.153Z,57.60
2022-12-08T03:33:43.639Z,58.10
2022-12-08T03:36:12.614Z,53.72
2022-12-08T03:38:41.975Z,58.47
2022-12-08T03:41:21.553Z,55.08
2022-12-08T03:44:12.791Z,56.15
2022-12-08T03:46:40.572Z,55.47
2022-12-08T03:49:07.400Z,52.55
2022-12-08T03:51:40.087Z,55.35
2022-12-08T03:54:09.642Z,56.25
2022-12-08T03:56:48.424Z,53.85
2022-12-08T03:59:20.453Z,54.60
2022-12-08T04:01:47.564Z,56.22
2022-12-08T04:04:19.170Z,52.65
2022-12-08T04:06:46.251Z,57.20
2022-12-08T04:09:21.112Z,55.58
2022-12-08T04:11:50.318Z,53.97
2022-12-08T04:14:17.182Z,56.70
2022-12-08T04:16:48.774Z,56.00
2022-12-08T04:19:18.646Z,52.97
2022-12-08T04:21:49.611Z,60.08
2022-12-08T04:24:16.549Z,53.50
2022-12-08T04:30:12.238Z,58.85
2022-12-08T04:32:44.221Z,57.85
2022-12-08T04:35:13.968Z,58.05
2022-12-08T04:37:40.994Z,56.05
2022-12-08T04:40:17.166Z,59.95
2022-12-08T04:42:44.359Z,61.20
2022-12-08T04:45:16.657Z,59.20
2022-12-08T04:47:43.548Z,58.00
2022-12-08T04:50:11.817Z,61.95
2022-12-08T04:52:42.207Z,59.70
2022-12-08T04:55:13.363Z,58.88
2022-12-08T04:57:40.293Z,55.55
2022-12-08T05:06:53.205Z,61.97
2022-12-08T05:09:20.147Z,58.08
2022-12-08T05:11:48.992Z,58.03
2022-12-08T05:14:20.342Z,55.28
2022-12-08T05:16:47.651Z,54.88
2022-12-08T05:19:15.689Z,57.50
2022-12-08T05:21:51.703Z,55.65
2022-12-08T05:28:17.634Z,49.22
2022-12-08T05:30:47.993Z,51.72
2022-12-08T05:33:15.200Z,45.92
2022-12-08T05:35:45.022Z,49.80
2022-12-08T05:38:13.689Z,46.97
2022-12-08T05:40:42.536Z,46.42
2022-12-08T05:43:10.661Z,46.67
2022-12-08T05:45:37.591Z,49.60
2022-12-08T05:48:20.633Z,51.33
2022-12-08T05:50:51.700Z,50.38
2022-12-08T05:53:23.047Z,46.95
2022-12-08T05:55:50.150Z,47.92
2022-12-08T05:58:19.606Z,48.25
2022-12-08T06:00:58.422Z,48.63
2022-12-08T06:03:32.721Z,48.58
2022-12-08T06:05:59.675Z,45.70
2022-12-08T06:08:30.162Z,47.03
2022-12-08T06:10:56.981Z,45.70
2022-12-08T06:16:52.291Z,43.33
2022-12-08T06:19:19.486Z,44.05
2022-12-08T06:21:46.300Z,44.85
2022-12-08T06:24:13.292Z,46.85
2022-12-08T06:26:41.747Z,42.38
2022-12-08T06:29:08.696Z,40.38
2022-12-08T06:31:35.881Z,42.15
2022-12-08T06:38:02.439Z,42.55
2022-12-08T06:40:29.305Z,42.65
2022-12-08T06:42:56.233Z,39.03
2022-12-08T06:45:23.022Z,39.25
2022-12-08T06:47:51.349Z,40.05
2022-12-08T06:50:18.293Z,37.92
2022-12-08T06:52:55.929Z,39.67
2022-12-08T06:58:18.919Z,39.28
2022-12-08T07:03:27.004Z,37.58
2022-12-08T07:06:03.319Z,41.08
2022-12-08T07:24:19.588Z,40.60
2022-12-08T07:26:46.434Z,40.38
2022-12-08T07:29:23.128Z,40.58
2022-12-08T07:31:55.946Z,41.22
2022-12-08T07:34:22.889Z,42.25
2022-12-08T07:36:52.646Z,43.55
2022-12-08T07:39:19.618Z,40.75
2022-12-08T07:41:46.576Z,44.30
2022-12-08T07:44:13.470Z,44.25
2022-12-08T07:46:43.550Z,42.10
2022-12-08T07:49:10.479Z,44.15
2022-12-08T07:51:37.340Z,44.80
2022-12-08T07:54:04.330Z,43.58
2022-12-08T07:56:34.234Z,37.83
2022-12-08T07:59:01.728Z,43.97
2022-12-08T08:01:31.458Z,44.15
2022-12-08T08:04:08.473Z,44.22
2022-12-08T08:06:37.213Z,44.97
2022-12-08T08:09:04.785Z,47.28
2022-12-08T08:11:37.764Z,47.03
2022-12-08T08:14:04.767Z,45.83
2022-12-08T08:16:38.717Z,43.13
2022-12-08T08:19:09.652Z,46.75
2022-12-08T08:21:45.836Z,48.20
2022-12-08T08:24:22.558Z,47.50
2022-12-08T08:27:01.388Z,48.53
2022-12-08T08:29:30.692Z,44.72
2022-12-08T08:31:57.907Z,48.67
2022-12-08T08:34:27.798Z,46.85
2022-12-08T08:36:57.449Z,47.72
2022-12-08T08:39:35.222Z,47.08
2022-12-08T08:42:02.465Z,48.55
2022-12-08T08:44:35.083Z,46.90
2022-12-08T08:49:39.345Z,48.55
2022-12-08T08:52:11.636Z,47.65
2022-12-08T08:54:44.608Z,50.13
2022-12-08T08:57:20.747Z,43.75
2022-12-08T08:59:54.294Z,47.72
2022-12-08T09:02:48.354Z,47.85
2022-12-08T09:05:16.905Z,48.00
2022-12-08T09:07:48.100Z,46.65
2022-12-08T09:10:15.531Z,46.90
2022-12-08T09:12:49.615Z,48.45
2022-12-08T09:15:23.352Z,43.80
2022-12-08T09:17:53.349Z,47.17
2022-12-08T09:20:20.458Z,49.20
2022-12-08T09:22:52.694Z,49.05
2022-12-08T09:25:24.453Z,49.05
2022-12-08T09:27:56.857Z,47.13
2022-12-08T09:32:58.943Z,47.10
2022-12-08T09:35:31.856Z,49.00
2022-12-08T09:37:58.763Z,48.90
2022-12-08T09:41:01.406Z,49.75
2022-12-08T09:44:15.179Z,50.10
2022-12-08T09:46:47.900Z,45.63
2022-12-08T09:49:22.061Z,50.78
2022-12-08T09:51:52.486Z,51.75
2022-12-08T09:54:29.359Z,48.92
2022-12-08T09:57:07.632Z,50.60
2022-12-08T09:59:39.528Z,43.80
2022-12-08T10:02:21.357Z,48.47
2022-12-08T10:04:48.505Z,49.60
2022-12-08T10:07:39.363Z,49.08
2022-12-08T10:10:18.796Z,53.50
2022-12-08T10:12:46.588Z,49.15
2022-12-08T10:15:49.587Z,51.95
2022-12-08T10:18:28.654Z,50.20
2022-12-08T10:21:14.732Z,50.85
2022-12-08T10:23:48.959Z,52.90
2022-12-08T10:26:30.380Z,53.00
2022-12-08T10:29:02.551Z,52.45
2022-12-08T10:31:33.389Z,51.35
2022-12-08T10:34:15.022Z,49.95
2022-12-08T10:36:57.318Z,45.60
2022-12-08T10:39:35.959Z,54.20
2022-12-08T10:42:23.216Z,51.90
2022-12-08T10:45:10.611Z,54.20
2022-12-08T10:47:44.604Z,55.60
2022-12-08T10:50:28.134Z,49.88
2022-12-08T10:53:09.067Z,55.00
2022-12-08T10:55:46.662Z,52.70
2022-12-08T10:58:37.335Z,55.88
2022-12-08T11:01:44.488Z,56.40
2022-12-08T11:04:21.263Z,54.33
2022-12-08T11:06:56.486Z,55.40
2022-12-08T11:09:35.991Z,54.45
2022-12-08T11:12:23.796Z,50.33
2022-12-08T11:15:00.233Z,55.72
2022-12-08T11:17:28.865Z,52.90
2022-12-08T11:19:57.407Z,55.53
2022-12-08T11:22:34.404Z,54.08
2022-12-08T11:25:11.271Z,60.88
2022-12-08T11:27:43.733Z,47.03
2022-12-08T11:30:23.774Z,55.80
2022-12-08T11:33:01.750Z,56.40
2022-12-08T11:35:54.775Z,53.50
2022-12-08T11:41:09.570Z,56.33
2022-12-08T11:43:59.520Z,58.20
2022-12-08T11:46:30.346Z,60.88
2022-12-08T11:49:07.247Z,60.67
2022-12-08T11:52:21.243Z,58.95
2022-12-08T11:55:07.378Z,62.70
2022-12-08T11:57:36.078Z,60.50
2022-12-08T12:00:23.713Z,60.15
2022-12-08T12:03:01.761Z,59.67
2022-12-08T12:06:09.280Z,59.22
2022-12-08T12:08:50.450Z,62.10
2022-12-08T12:11:57.682Z,62.65
2022-12-08T12:14:32.256Z,55.00
2022-12-08T12:17:30.243Z,57.78
2022-12-08T12:20:03.149Z,60.25
2022-12-08T12:22:39.242Z,56.55
2022-12-08T12:25:06.696Z,58.63
2022-12-08T12:27:40.740Z,60.20
2022-12-08T12:30:21.214Z,58.70
2022-12-08T12:33:09.296Z,60.80
2022-12-08T12:35:48.175Z,53.15
2022-12-08T12:38:49.711Z,54.83
2022-12-08T12:41:27.720Z,53.50
2022-12-08T12:44:18.724Z,49.63
2022-12-08T12:47:38.117Z,57.33
2022-12-08T12:50:10.452Z,53.88
2022-12-08T12:52:47.173Z,60.15
2022-12-08T12:55:21.536Z,50.90
2022-12-08T12:57:57.007Z,62.55
2022-12-08T13:00:26.798Z,49.88
2022-12-08T13:03:01.578Z,53.38
2022-12-08T13:05:28.720Z,55.17
2022-12-08T13:07:57.335Z,51.15
2022-12-08T13:10:39.676Z,56.50
2022-12-08T13:13:19.874Z,58.53
2022-12-08T13:16:01.027Z,58.30
2022-12-08T13:18:41.503Z,55.75
2022-12-08T13:21:19.122Z,58.80
2022-12-08T13:24:12.867Z,59.15
2022-12-08T13:27:17.754Z,48.85
2022-12-08T13:29:46.581Z,54.72
2022-12-08T13:32:13.515Z,52.88
2022-12-08T13:35:00.416Z,54.78
2022-12-08T13:37:52.434Z,55.55
2022-12-08T13:40:32.310Z,58.55
2022-12-08T13:43:23.642Z,53.95
2022-12-08T13:46:52.939Z,52.55
2022-12-08T13:57:37.805Z,57.53
2022-12-08T14:00:16.695Z,53.97
2022-12-08T14:02:57.189Z,56.58
2022-12-08T14:05:47.632Z,56.35
2022-12-08T14:08:58.920Z,54.47
2022-12-08T14:12:00.432Z,55.58
2022-12-08T14:15:04.983Z,56.45
2022-12-08T14:17:38.600Z,53.50
2022-12-08T14:20:57.879Z,52.67
2022-12-08T14:23:34.536Z,56.45
2022-12-08T14:26:11.476Z,52.85
2022-12-08T14:28:44.700Z,56.10
2022-12-08T14:31:14.911Z,54.45
2022-12-08T14:33:48.416Z,48.17
2022-12-08T14:36:26.127Z,53.30
2022-12-08T14:38:56.077Z,54.83
2022-12-08T14:41:35.083Z,53.70
2022-12-08T14:44:05.540Z,53.33
2022-12-08T14:46:36.043Z,55.88
2022-12-08T14:49:05.985Z,55.97
2022-12-08T14:51:37.061Z,57.25
2022-12-08T14:54:16.012Z,52.50
2022-12-08T14:56:59.022Z,53.65
2022-12-08T14:59:39.497Z,46.65
2022-12-08T15:02:10.524Z,53.83
2022-12-08T15:04:55.053Z,56.88
2022-12-08T15:07:44.511Z,53.83
2022-12-08T15:10:17.543Z,56.85
2022-12-08T15:13:23.423Z,52.50
2022-12-08T15:15:57.309Z,54.78
2022-12-08T15:18:41.401Z,55.78
2022-12-08T15:21:15.853Z,53.92
2022-12-08T15:23:50.337Z,53.72
2022-12-08T15:26:22.221Z,54.47
2022-12-08T15:28:49.165Z,54.72
2022-12-08T15:31:18.737Z,46.92
2022-12-08T15:33:46.073Z,53.40
2022-12-08T15:36:15.206Z,54.10
2022-12-08T15:38:43.587Z,52.55
2022-12-08T15:41:15.509Z,53.50
2022-12-08T15:43:45.609Z,51.95
2022-12-08T15:46:12.706Z,50.78
2022-12-08T15:48:58.356Z,45.92
2022-12-08T15:51:43.437Z,54.47
2022-12-08T15:54:16.792Z,54.45
2022-12-08T15:59:46.007Z,55.95
2022-12-08T16:02:20.904Z,55.25
2022-12-08T16:05:40.855Z,57.30
2022-12-08T16:07:57.403Z,54.03
2022-12-08T16:10:35.385Z,55.72
2022-12-08T16:13:56.764Z,53.88
2022-12-08T16:16:37.127Z,52.08
2022-12-08T16:19:07.580Z,54.88
2022-12-08T16:22:44.524Z,49.47
2022-12-08T16:24:29.251Z,43.97
2022-12-08T16:29:47.494Z,40.00
2022-12-08T16:32:18.039Z,41.20
2022-12-08T16:34:51.016Z,51.03
2022-12-08T16:37:28.858Z,39.00
2022-12-08T16:40:04.144Z,46.95
2022-12-08T16:42:55.252Z,53.72
2022-12-08T16:45:31.479Z,52.60
2022-12-08T16:48:16.791Z,48.72
2022-12-08T16:51:10.596Z,54.92
2022-12-08T16:53:46.674Z,53.28
2022-12-08T16:56:32.610Z,37.92
2022-12-08T16:59:04.065Z,54.10
2022-12-08T17:01:32.259Z,55.05
2022-12-08T17:06:53.233Z,53.63
2022-12-08T17:09:25.866Z,55.70
2022-12-08T17:12:01.837Z,54.92
2022-12-08T17:14:41.096Z,53.17
2022-12-08T17:17:09.433Z,54.45
2022-12-08T17:19:36.463Z,54.83
2022-12-08T17:22:07.643Z,52.83
2022-12-08T17:31:42.291Z,50.28
2022-12-08T17:34:17.095Z,48.03
2022-12-08T17:40:28.115Z,40.35
2022-12-08T17:43:46.466Z,42.22
2022-12-08T18:00:09.691Z,53.65
2022-12-08T18:02:41.031Z,45.45
2022-12-08T18:05:10.845Z,53.83
2022-12-08T18:07:40.395Z,48.22
2022-12-08T18:10:08.185Z,53.10
2022-12-08T18:12:38.835Z,53.63
2022-12-08T18:18:44.207Z,54.80
2022-12-08T18:21:23.263Z,53.47
2022-12-08T18:24:01.525Z,53.95
2022-12-08T18:26:39.593Z,53.53
2022-12-08T18:29:08.236Z,43.58
2022-12-08T18:32:31.507Z,40.45
2022-12-08T18:35:01.326Z,52.28
2022-12-08T18:37:28.753Z,41.97
2022-12-08T18:39:55.959Z,51.92
2022-12-08T18:42:30.389Z,44.40
2022-12-08T18:45:04.592Z,53.08
2022-12-08T18:47:33.855Z,38.95
2022-12-08T18:50:00.868Z,39.25
2022-12-08T18:52:32.325Z,38.05
2022-12-08T18:55:09.145Z,41.50
2022-12-08T19:01:04.540Z,41.22
2022-12-08T19:06:58.705Z,51.15
2022-12-08T19:09:27.114Z,44.10
2022-12-08T19:11:56.720Z,40.80
2022-12-08T19:15:00.582Z,41.88
2022-12-08T19:18:11.032Z,40.15
2022-12-08T19:25:06.127Z,38.13
2022-12-08T19:27:35.692Z,50.28
2022-12-08T19:30:12.414Z,52.50
2022-12-08T19:32:39.194Z,37.95
2022-12-08T19:35:13.291Z,51.30
2022-12-08T19:42:13.692Z,49.90
2022-12-08T19:44:52.825Z,51.45
2022-12-08T19:47:25.044Z,46.88
2022-12-08T19:50:30.852Z,48.92
2022-12-08T19:53:01.402Z,38.50
2022-12-08T19:55:31.151Z,44.05
2022-12-08T19:58:06.838Z,50.03
2022-12-08T20:00:41.221Z,49.67
2022-12-08T20:03:23.199Z,45.80
2022-12-08T20:06:00.702Z,49.38
2022-12-08T20:08:34.081Z,40.38
2022-12-08T20:14:45.496Z,46.90
2022-12-08T20:17:23.868Z,45.95
2022-12-08T20:20:07.062Z,46.60
2022-12-08T20:22:38.247Z,45.90
2022-12-08T20:25:07.286Z,46.60
2022-12-08T20:27:37.411Z,41.17
2022-12-08T20:30:05.028Z,46.53
2022-12-08T20:32:32.777Z,39.70
2022-12-08T20:34:59.725Z,37.33
2022-12-08T20:37:26.646Z,35.70
2022-12-08T20:39:53.501Z,37.45
2022-12-08T20:42:28.339Z,45.13
2022-12-08T20:44:56.810Z,35.15
2022-12-08T20:47:24.054Z,38.22
2022-12-08T20:49:53.672Z,46.70
2022-12-08T20:52:24.120Z,45.78
2022-12-08T20:54:50.828Z,45.83
2022-12-08T20:57:26.817Z,43.47
2022-12-08T20:59:53.976Z,41.45
2022-12-08T21:02:24.486Z,46.45
2022-12-08T21:04:51.460Z,35.22
2022-12-08T21:07:21.090Z,45.20
2022-12-08T21:09:48.046Z,42.83
2022-12-08T21:12:15.064Z,46.13
2022-12-08T21:14:45.482Z,46.63
2022-12-08T21:17:15.953Z,39.70
2022-12-08T21:20:13.995Z,45.50
2022-12-08T21:22:42.284Z,47.80
2022-12-08T21:25:12.604Z,46.97
2022-12-08T21:27:40.019Z,41.33
2022-12-08T21:30:12.385Z,41.47
2022-12-08T21:35:07.422Z,46.05
2022-12-08T21:37:49.256Z,48.55
2022-12-08T21:40:21.653Z,47.73
2022-12-08T21:42:52.206Z,49.47
2022-12-08T21:45:27.705Z,49.83
2022-12-08T21:48:15.885Z,39.50
2022-12-08T21:54:18.741Z,41.42
2022-12-08T21:56:55.905Z,47.90
2022-12-08T21:59:22.994Z,48.85
2022-12-08T22:01:50.036Z,42.00
2022-12-08T22:04:22.592Z,50.13
2022-12-08T22:06:55.414Z,35.53
2022-12-08T22:12:59.533Z,35.88
2022-12-08T22:15:26.527Z,36.90
2022-12-08T22:18:06.677Z,36.33
2022-12-08T22:20:42.338Z,46.28
2022-12-08T22:23:18.021Z,38.95
2022-12-08T22:25:58.030Z,46.75
2022-12-08T22:28:46.924Z,44.83
2022-12-08T22:31:37.718Z,46.83
2022-12-08T22:34:28.797Z,45.67
2022-12-08T22:37:03.753Z,46.97
2022-12-08T22:39:38.889Z,40.10
2022-12-08T22:42:09.120Z,47.22
2022-12-08T22:51:37.696Z,41.40
2022-12-08T22:54:12.025Z,38.97
2022-12-08T22:56:53.475Z,39.47
2022-12-08T22:59:43.166Z,35.97
2022-12-08T23:02:16.153Z,43.40
2022-12-08T23:04:55.486Z,37.17
2022-12-08T23:07:29.584Z,42.67
2022-12-08T23:10:03.044Z,38.28
2022-12-08T23:12:46.330Z,43.42
2022-12-08T23:15:18.089Z,34.78
2022-12-08T23:17:48.728Z,35.65
2022-12-08T23:20:19.097Z,45.17
2022-12-08T23:22:53.943Z,46.38
2022-12-08T23:25:25.291Z,47.50
2022-12-08T23:27:52.510Z,47.05
2022-12-08T23:30:19.406Z,47.53
2022-12-08T23:32:56.810Z,45.83
2022-12-08T23:35:23.952Z,41.28
2022-12-08T23:37:53.766Z,45.03
2022-12-08T23:40:20.749Z,37.42
2022-12-08T23:42:47.516Z,47.58
2022-12-08T23:45:14.533Z,37.28
2022-12-08T23:47:44.207Z,44.03
2022-12-08T23:50:14.084Z,36.60
2022-12-08T23:52:41.087Z,42.15
2022-12-08T23:55:08.807Z,41.67
2022-12-08T23:57:37.586Z,44.03
